sensor_id;sensor_type;location;lat;lon;timestamp;pressure;altitude;pressure_sealevel;temperature;humidity
53270;BME280;39159;45.634;9.420;2024-01-15T00:00:13;97895.41;;;1.44;100.00
53270;BME280;39159;45.634;9.420;2024-01-15T00:02:38;97895.41;;;1.44;100.00
53270;BME280;39159;45.634;9.420;2024-01-15T00:05:04;97900.25;;;1.48;100.00
53270;BME280;39159;45.634;9.420;2024-01-15T00:07:29;97888.97;;;1.45;100.00
53270;BME280;39159;45.634;9.420;2024-01-15T00:09:55;97878.72;;;1.48;100.00
53270;BME280;39159;45.634;9.420;2024-01-15T00:12:20;97873.31;;;1.53;100.00
53270;BME280;39159;45.634;9.420;2024-01-15T00:14:46;97866.09;;;1.48;100.00
53270;BME280;39159;45.634;9.420;2024-01-15T00:17:11;97865.28;;;1.48;100.00
53270;BME280;39159;45.634;9.420;2024-01-15T00:19:36;97868.78;;;1.48;100.00
53270;BME280;39159;45.634;9.420;2024-01-15T00:22:02;97877.09;;;1.47;100.00
53270;BME280;39159;45.634;9.420;2024-01-15T00:24:28;97862.34;;;1.49;100.00
53270;BME280;39159;45.634;9.420;2024-01-15T00:26:53;97865.31;;;1.42;100.00
53270;BME280;39159;45.634;9.420;2024-01-15T00:29:31;97863.72;;;1.36;100.00
53270;BME280;39159;45.634;9.420;2024-01-15T00:31:56;97847.84;;;1.40;100.00
53270;BME280;39159;45.634;9.420;2024-01-15T00:34:22;97853.75;;;1.47;100.00
53270;BME280;39159;45.634;9.420;2024-01-15T00:36:47;97848.09;;;1.43;100.00
53270;BME280;39159;45.634;9.420;2024-01-15T00:39:12;97835.72;;;1.48;100.00
53270;BME280;39159;45.634;9.420;2024-01-15T00:41:38;97840.84;;;1.49;100.00
53270;BME280;39159;45.634;9.420;2024-01-15T00:44:03;97838.41;;;1.48;100.00
53270;BME280;39159;45.634;9.420;2024-01-15T00:46:29;97826.31;;;1.40;100.00
53270;BME280;39159;45.634;9.420;2024-01-15T00:48:54;97823.44;;;1.31;100.00
53270;BME280;39159;45.634;9.420;2024-01-15T00:51:19;97817.53;;;1.24;100.00
53270;BME280;39159;45.634;9.420;2024-01-15T00:53:45;97823.72;;;1.24;100.00
53270;BME280;39159;45.634;9.420;2024-01-15T00:56:10;97828.28;;;1.24;100.00
53270;BME280;39159;45.634;9.420;2024-01-15T00:58:36;97825.59;;;1.29;100.00
53270;BME280;39159;45.634;9.420;2024-01-15T01:01:01;97822.59;;;1.31;100.00
53270;BME280;39159;45.634;9.420;2024-01-15T01:03:26;97823.19;;;1.22;100.00
53270;BME280;39159;45.634;9.420;2024-01-15T01:05:52;97832.59;;;1.25;100.00
53270;BME280;39159;45.634;9.420;2024-01-15T01:08:17;97827.97;;;1.31;100.00
53270;BME280;39159;45.634;9.420;2024-01-15T01:10:43;97813.72;;;1.35;100.00
53270;BME280;39159;45.634;9.420;2024-01-15T01:13:08;97819.38;;;1.29;100.00
53270;BME280;39159;45.634;9.420;2024-01-15T01:15:34;97809.19;;;1.26;100.00
53270;BME280;39159;45.634;9.420;2024-01-15T01:17:59;97803.53;;;1.32;100.00
53270;BME280;39159;45.634;9.420;2024-01-15T01:20:25;97798.66;;;1.39;100.00
53270;BME280;39159;45.634;9.420;2024-01-15T01:22:50;97805.88;;;1.44;100.00
53270;BME280;39159;45.634;9.420;2024-01-15T01:25:15;97805.13;;;1.38;100.00
53270;BME280;39159;45.634;9.420;2024-01-15T01:27:41;97783.88;;;1.37;100.00
53270;BME280;39159;45.634;9.420;2024-01-15T01:30:06;97781.97;;;1.42;100.00
53270;BME280;39159;45.634;9.420;2024-01-15T01:32:32;97779.78;;;1.44;100.00
53270;BME280;39159;45.634;9.420;2024-01-15T01:34:57;97787.59;;;1.46;100.00
53270;BME280;39159;45.634;9.420;2024-01-15T01:37:23;97773.63;;;1.44;100.00
53270;BME280;39159;45.634;9.420;2024-01-15T01:39:48;97769.34;;;1.43;100.00
53270;BME280;39159;45.634;9.420;2024-01-15T01:42:14;97762.03;;;1.49;100.00
53270;BME280;39159;45.634;9.420;2024-01-15T01:44:39;97755.28;;;1.51;100.00
53270;BME280;39159;45.634;9.420;2024-01-15T01:47:05;97755.56;;;1.55;100.00
53270;BME280;39159;45.634;9.420;2024-01-15T01:49:31;97765.75;;;1.58;100.00
53270;BME280;39159;45.634;9.420;2024-01-15T01:51:58;97761.72;;;1.55;100.00
53270;BME280;39159;45.634;9.420;2024-01-15T01:54:26;97764.97;;;1.52;100.00
53270;BME280;39159;45.634;9.420;2024-01-15T01:56:54;97763.13;;;1.48;100.00
53270;BME280;39159;45.634;9.420;2024-01-15T01:59:20;97756.66;;;1.54;100.00
53270;BME280;39159;45.634;9.420;2024-01-15T02:01:46;97752.28;;;1.58;100.00
53270;BME280;39159;45.634;9.420;2024-01-15T02:04:14;97760.94;;;1.55;100.00
53270;BME280;39159;45.634;9.420;2024-01-15T02:06:40;97766.34;;;1.50;100.00
53270;BME280;39159;45.634;9.420;2024-01-15T02:09:05;97763.63;;;1.55;100.00
53270;BME280;39159;45.634;9.420;2024-01-15T02:11:31;97770.09;;;1.49;100.00
53270;BME280;39159;45.634;9.420;2024-01-15T02:13:56;97761.28;;;1.38;100.00
53270;BME280;39159;45.634;9.420;2024-01-15T02:16:22;97758.09;;;1.31;100.00
53270;BME280;39159;45.634;9.420;2024-01-15T02:18:47;97759.69;;;1.37;100.00
53270;BME280;39159;45.634;9.420;2024-01-15T02:21:13;97753.50;;;1.36;100.00
53270;BME280;39159;45.634;9.420;2024-01-15T02:23:38;97757.03;;;1.27;100.00
53270;BME280;39159;45.634;9.420;2024-01-15T02:26:05;97755.94;;;1.33;100.00
53270;BME280;39159;45.634;9.420;2024-01-15T02:28:30;97743.03;;;1.35;100.00
53270;BME280;39159;45.634;9.420;2024-01-15T02:30:57;97740.06;;;1.36;100.00
53270;BME280;39159;45.634;9.420;2024-01-15T02:33:23;97741.97;;;1.31;100.00
53270;BME280;39159;45.634;9.420;2024-01-15T02:35:48;97756.31;;;1.16;100.00
53270;BME280;39159;45.634;9.420;2024-01-15T02:38:15;97757.13;;;1.06;100.00
53270;BME280;39159;45.634;9.420;2024-01-15T02:40:41;97748.81;;;1.08;100.00
53270;BME280;39159;45.634;9.420;2024-01-15T02:43:06;97740.22;;;1.06;100.00
53270;BME280;39159;45.634;9.420;2024-01-15T02:45:32;97747.50;;;1.05;100.00
53270;BME280;39159;45.634;9.420;2024-01-15T02:47:57;97736.16;;;1.13;100.00
53270;BME280;39159;45.634;9.420;2024-01-15T02:50:22;97725.09;;;1.20;100.00
53270;BME280;39159;45.634;9.420;2024-01-15T02:52:48;97713.25;;;1.26;100.00
53270;BME280;39159;45.634;9.420;2024-01-15T02:55:13;97717.03;;;1.25;100.00
53270;BME280;39159;45.634;9.420;2024-01-15T02:57:38;97709.22;;;1.23;100.00
53270;BME280;39159;45.634;9.420;2024-01-15T03:00:04;97700.34;;;1.28;100.00
53270;BME280;39159;45.634;9.420;2024-01-15T03:02:30;97703.59;;;1.25;100.00
53270;BME280;39159;45.634;9.420;2024-01-15T03:04:57;97706.28;;;1.20;100.00
53270;BME280;39159;45.634;9.420;2024-01-15T03:07:22;97700.09;;;1.24;100.00
53270;BME280;39159;45.634;9.420;2024-01-15T03:09:48;97698.81;;;1.12;100.00
53270;BME280;39159;45.634;9.420;2024-01-15T03:12:13;97698.56;;;1.08;100.00
53270;BME280;39159;45.634;9.420;2024-01-15T03:14:38;97696.16;;;1.07;100.00
53270;BME280;39159;45.634;9.420;2024-01-15T03:17:04;97696.44;;;1.05;100.00
53270;BME280;39159;45.634;9.420;2024-01-15T03:19:29;97692.97;;;1.05;100.00
53270;BME280;39159;45.634;9.420;2024-01-15T03:21:56;97680.06;;;1.01;100.00
53270;BME280;39159;45.634;9.420;2024-01-15T03:24:21;97666.41;;;0.93;100.00
53270;BME280;39159;45.634;9.420;2024-01-15T03:26:47;97666.69;;;0.86;100.00
53270;BME280;39159;45.634;9.420;2024-01-15T03:29:12;97669.69;;;0.79;100.00
53270;BME280;39159;45.634;9.420;2024-01-15T03:31:38;97667.31;;;0.78;100.00
53270;BME280;39159;45.634;9.420;2024-01-15T03:34:03;97653.31;;;0.81;100.00
53270;BME280;39159;45.634;9.420;2024-01-15T03:36:29;97666.78;;;0.71;100.00
53270;BME280;39159;45.634;9.420;2024-01-15T03:38:54;97650.66;;;0.71;100.00
53270;BME280;39159;45.634;9.420;2024-01-15T03:41:19;97641.47;;;0.82;100.00
53270;BME280;39159;45.634;9.420;2024-01-15T03:43:45;97647.91;;;0.86;100.00
53270;BME280;39159;45.634;9.420;2024-01-15T03:46:10;97658.91;;;0.90;100.00
53270;BME280;39159;45.634;9.420;2024-01-15T03:48:35;97660.75;;;0.94;100.00
53270;BME280;39159;45.634;9.420;2024-01-15T03:51:01;97665.59;;;0.92;100.00
53270;BME280;39159;45.634;9.420;2024-01-15T03:53:26;97660.78;;;0.89;100.00
53270;BME280;39159;45.634;9.420;2024-01-15T03:55:52;97654.06;;;0.92;100.00
53270;BME280;39159;45.634;9.420;2024-01-15T03:58:17;97651.59;;;0.95;100.00
53270;BME280;39159;45.634;9.420;2024-01-15T04:00:43;97649.97;;;0.99;100.00
53270;BME280;39159;45.634;9.420;2024-01-15T04:03:08;97644.91;;;0.98;100.00
53270;BME280;39159;45.634;9.420;2024-01-15T04:05:34;97636.53;;;0.99;100.00
53270;BME280;39159;45.634;9.420;2024-01-15T04:07:59;97632.56;;;0.92;100.00
53270;BME280;39159;45.634;9.420;2024-01-15T04:10:25;97642.84;;;0.79;100.00
53270;BME280;39159;45.634;9.420;2024-01-15T04:12:50;97645.28;;;0.76;100.00
53270;BME280;39159;45.634;9.420;2024-01-15T04:15:16;97639.63;;;0.77;100.00
53270;BME280;39159;45.634;9.420;2024-01-15T04:17:41;97639.09;;;0.75;100.00
53270;BME280;39159;45.634;9.420;2024-01-15T04:20:07;97631.88;;;0.76;100.00
53270;BME280;39159;45.634;9.420;2024-01-15T04:22:34;97609.84;;;0.69;100.00
53270;BME280;39159;45.634;9.420;2024-01-15T04:24:59;97629.66;;;0.83;100.00
53270;BME280;39159;45.634;9.420;2024-01-15T04:27:24;97616.47;;;0.87;100.00
53270;BME280;39159;45.634;9.420;2024-01-15T04:29:50;97611.94;;;0.87;100.00
53270;BME280;39159;45.634;9.420;2024-01-15T04:32:15;97609.19;;;0.92;100.00
53270;BME280;39159;45.634;9.420;2024-01-15T04:34:40;97606.25;;;0.89;100.00
53270;BME280;39159;45.634;9.420;2024-01-15T04:37:06;97600.34;;;0.92;100.00
53270;BME280;39159;45.634;9.420;2024-01-15T04:39:31;97607.34;;;0.88;100.00
53270;BME280;39159;45.634;9.420;2024-01-15T04:41:57;97599.84;;;0.85;100.00
53270;BME280;39159;45.634;9.420;2024-01-15T04:44:22;97595.28;;;0.80;100.00
53270;BME280;39159;45.634;9.420;2024-01-15T04:46:47;97576.00;;;0.78;100.00
53270;BME280;39159;45.634;9.420;2024-01-15T04:49:13;97594.56;;;0.64;100.00
53270;BME280;39159;45.634;9.420;2024-01-15T04:51:38;97583.59;;;0.60;100.00
53270;BME280;39159;45.634;9.420;2024-01-15T04:54:04;97582.28;;;0.58;100.00
53270;BME280;39159;45.634;9.420;2024-01-15T04:56:29;97570.72;;;0.57;100.00
53270;BME280;39159;45.634;9.420;2024-01-15T04:58:55;97576.91;;;0.58;100.00
53270;BME280;39159;45.634;9.420;2024-01-15T05:01:20;97576.63;;;0.59;100.00
53270;BME280;39159;45.634;9.420;2024-01-15T05:03:45;97586.25;;;0.66;100.00
53270;BME280;39159;45.634;9.420;2024-01-15T05:06:11;97587.56;;;0.68;100.00
53270;BME280;39159;45.634;9.420;2024-01-15T05:08:36;97579.25;;;0.70;100.00
53270;BME280;39159;45.634;9.420;2024-01-15T05:11:01;97573.09;;;0.64;100.00
53270;BME280;39159;45.634;9.420;2024-01-15T05:13:27;97576.31;;;0.66;100.00
53270;BME280;39159;45.634;9.420;2024-01-15T05:15:53;97577.16;;;0.61;100.00
53270;BME280;39159;45.634;9.420;2024-01-15T05:18:18;97563.69;;;0.72;100.00
53270;BME280;39159;45.634;9.420;2024-01-15T05:20:44;97568.91;;;0.92;100.00
53270;BME280;39159;45.634;9.420;2024-01-15T05:23:09;97582.28;;;0.97;100.00
53270;BME280;39159;45.634;9.420;2024-01-15T05:25:34;97585.03;;;0.92;100.00
53270;BME280;39159;45.634;9.420;2024-01-15T05:28:00;97591.13;;;1.03;100.00
53270;BME280;39159;45.634;9.420;2024-01-15T05:30:25;97573.94;;;1.04;100.00
53270;BME280;39159;45.634;9.420;2024-01-15T05:32:50;97576.03;;;1.12;100.00
53270;BME280;39159;45.634;9.420;2024-01-15T05:35:16;97573.00;;;1.19;100.00
53270;BME280;39159;45.634;9.420;2024-01-15T05:37:44;97566.22;;;1.27;100.00
53270;BME280;39159;45.634;9.420;2024-01-15T05:40:10;97570.81;;;1.26;100.00
53270;BME280;39159;45.634;9.420;2024-01-15T05:42:36;97564.88;;;1.29;100.00
53270;BME280;39159;45.634;9.420;2024-01-15T05:45:01;97579.00;;;1.40;100.00
53270;BME280;39159;45.634;9.420;2024-01-15T05:47:29;97568.19;;;1.50;100.00
53270;BME280;39159;45.634;9.420;2024-01-15T05:49:55;97561.91;;;1.60;100.00
53270;BME280;39159;45.634;9.420;2024-01-15T05:52:21;97562.72;;;1.60;100.00
53270;BME280;39159;45.634;9.420;2024-01-15T05:54:47;97548.75;;;1.29;100.00
53270;BME280;39159;45.634;9.420;2024-01-15T05:57:12;97548.50;;;1.26;100.00
53270;BME280;39159;45.634;9.420;2024-01-15T05:59:38;97539.59;;;1.30;100.00
53270;BME280;39159;45.634;9.420;2024-01-15T06:02:03;97538.41;;;1.41;100.00
53270;BME280;39159;45.634;9.420;2024-01-15T06:04:29;97539.88;;;1.29;100.00
53270;BME280;39159;45.634;9.420;2024-01-15T06:06:54;97538.00;;;1.29;100.00
53270;BME280;39159;45.634;9.420;2024-01-15T06:09:20;97541.44;;;1.35;100.00
53270;BME280;39159;45.634;9.420;2024-01-15T06:11:45;97544.03;;;1.45;100.00
53270;BME280;39159;45.634;9.420;2024-01-15T06:14:11;97538.88;;;1.49;100.00
53270;BME280;39159;45.634;9.420;2024-01-15T06:16:36;97534.66;;;1.72;100.00
53270;BME280;39159;45.634;9.420;2024-01-15T06:19:01;97531.31;;;2.04;100.00
53270;BME280;39159;45.634;9.420;2024-01-15T06:21:27;97538.47;;;1.65;100.00
53270;BME280;39159;45.634;9.420;2024-01-15T06:23:52;97533.78;;;1.76;100.00
53270;BME280;39159;45.634;9.420;2024-01-15T06:26:17;97527.41;;;1.91;100.00
53270;BME280;39159;45.634;9.420;2024-01-15T06:28:43;97518.78;;;1.94;100.00
53270;BME280;39159;45.634;9.420;2024-01-15T06:31:08;97521.56;;;1.89;100.00
53270;BME280;39159;45.634;9.420;2024-01-15T06:33:34;97521.66;;;1.79;100.00
53270;BME280;39159;45.634;9.420;2024-01-15T06:35:59;97511.84;;;1.64;100.00
53270;BME280;39159;45.634;9.420;2024-01-15T06:38:24;97513.28;;;1.56;100.00
53270;BME280;39159;45.634;9.420;2024-01-15T06:40:50;97523.53;;;1.25;100.00
53270;BME280;39159;45.634;9.420;2024-01-15T06:43:17;97531.78;;;0.99;100.00
53270;BME280;39159;45.634;9.420;2024-01-15T06:45:46;97533.81;;;0.78;100.00
53270;BME280;39159;45.634;9.420;2024-01-15T06:48:17;97533.13;;;0.63;100.00
53270;BME280;39159;45.634;9.420;2024-01-15T06:50:43;97531.03;;;0.54;100.00
53270;BME280;39159;45.634;9.420;2024-01-15T06:53:08;97527.53;;;0.49;100.00
53270;BME280;39159;45.634;9.420;2024-01-15T06:55:33;97512.28;;;0.44;100.00
53270;BME280;39159;45.634;9.420;2024-01-15T06:57:59;97505.41;;;0.28;100.00
53270;BME280;39159;45.634;9.420;2024-01-15T07:00:25;97508.97;;;0.57;100.00
53270;BME280;39159;45.634;9.420;2024-01-15T07:02:50;97513.84;;;0.50;100.00
53270;BME280;39159;45.634;9.420;2024-01-15T07:05:16;97512.28;;;0.44;100.00
53270;BME280;39159;45.634;9.420;2024-01-15T07:07:41;97513.34;;;0.48;100.00
53270;BME280;39159;45.634;9.420;2024-01-15T07:10:07;97514.59;;;0.61;100.00
53270;BME280;39159;45.634;9.420;2024-01-15T07:12:32;97508.34;;;0.71;100.00
53270;BME280;39159;45.634;9.420;2024-01-15T07:14:58;97526.56;;;0.79;100.00
53270;BME280;39159;45.634;9.420;2024-01-15T07:17:24;97520.63;;;0.82;100.00
53270;BME280;39159;45.634;9.420;2024-01-15T07:19:49;97541.84;;;0.83;100.00
53270;BME280;39159;45.634;9.420;2024-01-15T07:22:15;97543.94;;;0.87;100.00
53270;BME280;39159;45.634;9.420;2024-01-15T07:24:42;97541.00;;;0.88;100.00
53270;BME280;39159;45.634;9.420;2024-01-15T07:27:08;97539.09;;;0.94;100.00
53270;BME280;39159;45.634;9.420;2024-01-15T07:29:34;97531.63;;;0.86;100.00
53270;BME280;39159;45.634;9.420;2024-01-15T07:32:01;97533.19;;;0.92;100.00
53270;BME280;39159;45.634;9.420;2024-01-15T07:34:26;97538.28;;;0.93;100.00
53270;BME280;39159;45.634;9.420;2024-01-15T07:36:52;97535.09;;;0.86;100.00
53270;BME280;39159;45.634;9.420;2024-01-15T07:39:17;97551.81;;;0.78;100.00
53270;BME280;39159;45.634;9.420;2024-01-15T07:41:43;97554.28;;;0.69;100.00
53270;BME280;39159;45.634;9.420;2024-01-15T07:44:09;97556.97;;;0.69;100.00
53270;BME280;39159;45.634;9.420;2024-01-15T07:46:34;97552.13;;;0.71;100.00
53270;BME280;39159;45.634;9.420;2024-01-15T07:49:00;97553.69;;;0.82;100.00
53270;BME280;39159;45.634;9.420;2024-01-15T07:51:25;97535.16;;;1.15;100.00
53270;BME280;39159;45.634;9.420;2024-01-15T07:53:53;97542.22;;;1.40;100.00
53270;BME280;39159;45.634;9.420;2024-01-15T07:56:19;97531.47;;;1.64;100.00
53270;BME280;39159;45.634;9.420;2024-01-15T07:58:44;97530.41;;;1.90;100.00
53270;BME280;39159;45.634;9.420;2024-01-15T08:01:10;97535.56;;;2.10;100.00
53270;BME280;39159;45.634;9.420;2024-01-15T08:03:35;97534.22;;;2.32;100.00
53270;BME280;39159;45.634;9.420;2024-01-15T08:06:00;97535.03;;;2.51;100.00
53270;BME280;39159;45.634;9.420;2024-01-15T08:08:26;97536.63;;;2.71;100.00
53270;BME280;39159;45.634;9.420;2024-01-15T08:10:52;97539.63;;;2.88;100.00
53270;BME280;39159;45.634;9.420;2024-01-15T08:13:18;97533.22;;;3.03;100.00
53270;BME280;39159;45.634;9.420;2024-01-15T08:15:43;97533.25;;;3.17;100.00
53270;BME280;39159;45.634;9.420;2024-01-15T08:18:09;97533.91;;;3.28;100.00
53270;BME280;39159;45.634;9.420;2024-01-15T08:20:34;97533.34;;;3.45;100.00
53270;BME280;39159;45.634;9.420;2024-01-15T08:23:00;97538.16;;;3.62;100.00
53270;BME280;39159;45.634;9.420;2024-01-15T08:25:25;97522.81;;;3.76;100.00
53270;BME280;39159;45.634;9.420;2024-01-15T08:27:51;97524.41;;;3.77;100.00
53270;BME280;39159;45.634;9.420;2024-01-15T08:30:17;97522.88;;;3.71;100.00
53270;BME280;39159;45.634;9.420;2024-01-15T08:32:44;97527.00;;;3.68;100.00
53270;BME280;39159;45.634;9.420;2024-01-15T08:35:10;97521.03;;;3.85;100.00
53270;BME280;39159;45.634;9.420;2024-01-15T08:37:37;97522.81;;;4.04;100.00
53270;BME280;39159;45.634;9.420;2024-01-15T08:40:03;97501.28;;;4.26;100.00
53270;BME280;39159;45.634;9.420;2024-01-15T08:42:29;97504.38;;;4.47;100.00
53270;BME280;39159;45.634;9.420;2024-01-15T08:44:54;97523.66;;;4.54;100.00
53270;BME280;39159;45.634;9.420;2024-01-15T08:47:20;97523.19;;;4.39;100.00
53270;BME280;39159;45.634;9.420;2024-01-15T08:49:45;97525.56;;;4.54;100.00
53270;BME280;39159;45.634;9.420;2024-01-15T08:52:11;97514.44;;;4.69;100.00
53270;BME280;39159;45.634;9.420;2024-01-15T08:54:36;97531.66;;;4.96;100.00
53270;BME280;39159;45.634;9.420;2024-01-15T08:57:02;97519.25;;;5.17;100.00
53270;BME280;39159;45.634;9.420;2024-01-15T08:59:27;97523.13;;;5.25;100.00
53270;BME280;39159;45.634;9.420;2024-01-15T09:01:53;97517.41;;;5.27;100.00
53270;BME280;39159;45.634;9.420;2024-01-15T09:04:19;97499.44;;;5.31;100.00
53270;BME280;39159;45.634;9.420;2024-01-15T09:06:47;97511.75;;;5.14;100.00
53270;BME280;39159;45.634;9.420;2024-01-15T09:09:13;97516.91;;;5.02;100.00
53270;BME280;39159;45.634;9.420;2024-01-15T09:11:41;97521.84;;;5.23;100.00
53270;BME280;39159;45.634;9.420;2024-01-15T09:14:07;97519.72;;;5.42;100.00
53270;BME280;39159;45.634;9.420;2024-01-15T09:16:33;97525.91;;;5.65;100.00
53270;BME280;39159;45.634;9.420;2024-01-15T09:18:59;97523.06;;;6.01;100.00
53270;BME280;39159;45.634;9.420;2024-01-15T09:21:25;97520.91;;;6.21;100.00
53270;BME280;39159;45.634;9.420;2024-01-15T09:23:50;97527.69;;;6.50;100.00
53270;BME280;39159;45.634;9.420;2024-01-15T09:26:16;97538.09;;;6.65;100.00
53270;BME280;39159;45.634;9.420;2024-01-15T09:28:41;97538.41;;;6.72;100.00
53270;BME280;39159;45.634;9.420;2024-01-15T09:31:07;97543.84;;;6.98;100.00
53270;BME280;39159;45.634;9.420;2024-01-15T09:33:32;97543.22;;;7.19;100.00
53270;BME280;39159;45.634;9.420;2024-01-15T09:36:01;97534.09;;;7.41;100.00
53270;BME280;39159;45.634;9.420;2024-01-15T09:38:28;97524.94;;;7.63;98.77
53270;BME280;39159;45.634;9.420;2024-01-15T09:40:53;97533.78;;;7.34;96.76
53270;BME280;39159;45.634;9.420;2024-01-15T09:43:19;97533.72;;;7.51;98.50
53270;BME280;39159;45.634;9.420;2024-01-15T09:45:45;97533.88;;;7.72;94.77
53270;BME280;39159;45.634;9.420;2024-01-15T09:48:10;97524.34;;;7.96;95.00
53270;BME280;39159;45.634;9.420;2024-01-15T09:50:36;97530.19;;;8.15;91.46
53270;BME280;39159;45.634;9.420;2024-01-15T09:53:02;97533.13;;;8.31;90.63
53270;BME280;39159;45.634;9.420;2024-01-15T09:55:29;97530.50;;;8.52;87.35
53270;BME280;39159;45.634;9.420;2024-01-15T09:57:55;97521.22;;;8.53;83.08
53270;BME280;39159;45.634;9.420;2024-01-15T10:00:22;97517.59;;;8.70;83.27
53270;BME280;39159;45.634;9.420;2024-01-15T10:02:47;97525.81;;;8.61;81.73
53270;BME280;39159;45.634;9.420;2024-01-15T10:05:13;97502.28;;;8.65;81.73
53270;BME280;39159;45.634;9.420;2024-01-15T10:07:39;97496.34;;;8.84;79.48
53270;BME280;39159;45.634;9.420;2024-01-15T10:10:05;97499.34;;;8.11;84.13
53270;BME280;39159;45.634;9.420;2024-01-15T10:12:32;97502.69;;;8.46;84.85
53270;BME280;39159;45.634;9.420;2024-01-15T10:14:58;97483.97;;;8.75;83.42
53270;BME280;39159;45.634;9.420;2024-01-15T10:17:24;97476.56;;;9.17;82.02
53270;BME280;39159;45.634;9.420;2024-01-15T10:19:49;97481.75;;;9.10;78.05
53270;BME280;39159;45.634;9.420;2024-01-15T10:22:15;97473.25;;;9.11;76.05
53270;BME280;39159;45.634;9.420;2024-01-15T10:24:41;97469.72;;;9.11;76.46
53270;BME280;39159;45.634;9.420;2024-01-15T10:27:07;97463.56;;;9.35;77.67
53270;BME280;39159;45.634;9.420;2024-01-15T10:29:33;97464.69;;;9.67;77.60
53270;BME280;39159;45.634;9.420;2024-01-15T10:31:59;97460.28;;;9.87;74.50
53270;BME280;39159;45.634;9.420;2024-01-15T10:34:24;97463.13;;;10.03;74.99
53270;BME280;39159;45.634;9.420;2024-01-15T10:36:50;97462.75;;;9.92;74.50
53270;BME280;39159;45.634;9.420;2024-01-15T10:39:24;97465.63;;;10.21;72.70
53270;BME280;39159;45.634;9.420;2024-01-15T10:41:50;97468.69;;;10.31;70.59
53270;BME280;39159;45.634;9.420;2024-01-15T10:44:17;97454.59;;;10.42;71.43
53270;BME280;39159;45.634;9.420;2024-01-15T10:46:43;97453.19;;;10.60;70.51
53270;BME280;39159;45.634;9.420;2024-01-15T10:49:08;97446.53;;;10.45;67.40
53270;BME280;39159;45.634;9.420;2024-01-15T10:51:35;97442.56;;;10.43;68.75
53270;BME280;39159;45.634;9.420;2024-01-15T10:54:02;97447.84;;;10.51;68.63
53270;BME280;39159;45.634;9.420;2024-01-15T10:56:30;97446.91;;;10.72;68.95
53270;BME280;39159;45.634;9.420;2024-01-15T10:58:56;97441.25;;;10.93;67.41
53270;BME280;39159;45.634;9.420;2024-01-15T11:01:22;97437.00;;;11.08;65.93
53270;BME280;39159;45.634;9.420;2024-01-15T11:03:48;97429.38;;;11.29;66.06
53270;BME280;39159;45.634;9.420;2024-01-15T11:06:17;97420.31;;;10.97;66.94
53270;BME280;39159;45.634;9.420;2024-01-15T11:08:49;97422.44;;;11.32;65.49
53270;BME280;39159;45.634;9.420;2024-01-15T11:11:18;97409.47;;;11.45;65.20
53270;BME280;39159;45.634;9.420;2024-01-15T11:13:46;97411.63;;;11.67;64.51
53270;BME280;39159;45.634;9.420;2024-01-15T11:16:13;97405.97;;;11.60;61.81
53270;BME280;39159;45.634;9.420;2024-01-15T11:19:01;97386.75;;;11.72;62.32
53270;BME280;39159;45.634;9.420;2024-01-15T11:21:28;97381.19;;;11.85;61.37
53270;BME280;39159;45.634;9.420;2024-01-15T11:26:35;97362.31;;;11.95;61.72
53270;BME280;39159;45.634;9.420;2024-01-15T11:29:03;97349.53;;;11.99;60.41
53270;BME280;39159;45.634;9.420;2024-01-15T11:32:14;97341.88;;;11.73;60.74
53270;BME280;39159;45.634;9.420;2024-01-15T11:34:15;97341.00;;;11.53;60.96
53270;BME280;39159;45.634;9.420;2024-01-15T11:41:55;97327.63;;;11.48;61.23
53270;BME280;39159;45.634;9.420;2024-01-15T11:44:21;97340.94;;;11.50;62.31
53270;BME280;39159;45.634;9.420;2024-01-15T11:46:57;97328.59;;;11.72;62.98
53270;BME280;39159;45.634;9.420;2024-01-15T11:50:00;97326.78;;;11.79;61.03
53270;BME280;39159;45.634;9.420;2024-01-15T11:52:35;97312.41;;;11.82;61.41
53270;BME280;39159;45.634;9.420;2024-01-15T11:57:52;97302.31;;;11.67;62.37
53270;BME280;39159;45.634;9.420;2024-01-15T12:00:20;97294.63;;;11.73;61.95
53270;BME280;39159;45.634;9.420;2024-01-15T12:02:47;97283.88;;;11.64;62.19
53270;BME280;39159;45.634;9.420;2024-01-15T12:05:14;97276.03;;;11.78;62.46
53270;BME280;39159;45.634;9.420;2024-01-15T12:07:41;97283.16;;;11.83;61.51
53270;BME280;39159;45.634;9.420;2024-01-15T12:10:11;97276.94;;;12.02;61.21
53270;BME280;39159;45.634;9.420;2024-01-15T12:12:44;97266.22;;;11.93;61.27
53270;BME280;39159;45.634;9.420;2024-01-15T12:15:11;97253.78;;;12.35;60.85
53270;BME280;39159;45.634;9.420;2024-01-15T12:17:36;97240.47;;;11.94;61.82
53270;BME280;39159;45.634;9.420;2024-01-15T12:20:04;97236.06;;;12.09;61.81
53270;BME280;39159;45.634;9.420;2024-01-15T12:22:29;97236.72;;;12.41;60.66
53270;BME280;39159;45.634;9.420;2024-01-15T12:24:55;97217.97;;;12.63;59.67
53270;BME280;39159;45.634;9.420;2024-01-15T12:27:20;97218.69;;;12.83;58.84
53270;BME280;39159;45.634;9.420;2024-01-15T12:29:46;97217.78;;;12.98;58.16
53270;BME280;39159;45.634;9.420;2024-01-15T12:32:12;97218.75;;;13.10;57.06
53270;BME280;39159;45.634;9.420;2024-01-15T12:34:37;97212.84;;;13.07;57.57
53270;BME280;39159;45.634;9.420;2024-01-15T12:37:03;97206.75;;;12.95;57.84
53270;BME280;39159;45.634;9.420;2024-01-15T12:39:28;97200.50;;;12.94;57.87
53270;BME280;39159;45.634;9.420;2024-01-15T12:41:54;97191.53;;;12.97;57.16
53270;BME280;39159;45.634;9.420;2024-01-15T12:44:20;97187.78;;;13.05;57.22
53270;BME280;39159;45.634;9.420;2024-01-15T12:46:45;97181.88;;;12.80;57.25
53270;BME280;39159;45.634;9.420;2024-01-15T12:49:13;97195.03;;;12.94;57.95
53270;BME280;39159;45.634;9.420;2024-01-15T12:51:38;97180.84;;;13.12;57.72
53270;BME280;39159;45.634;9.420;2024-01-15T12:54:04;97185.19;;;13.16;57.17
53270;BME280;39159;45.634;9.420;2024-01-15T12:56:29;97178.91;;;13.16;57.41
53270;BME280;39159;45.634;9.420;2024-01-15T12:58:54;97172.75;;;12.96;57.79
53270;BME280;39159;45.634;9.420;2024-01-15T13:01:20;97177.66;;;13.10;57.74
53270;BME280;39159;45.634;9.420;2024-01-15T13:03:46;97175.75;;;12.64;58.01